createdAt,value
2023-04-29T00:02:20.595Z,19.00
2023-04-29T00:04:48.892Z,19.00
2023-04-29T00:07:18.378Z,19.00
2023-04-29T00:09:46.296Z,19.00
2023-04-29T00:12:14.200Z,19.00
2023-04-29T00:14:43.285Z,19.00
2023-04-29T00:17:11.258Z,18.90
2023-04-29T00:19:39.410Z,19.00
2023-04-29T00:22:07.286Z,19.00
2023-04-29T00:24:38.556Z,19.10
2023-04-29T00:27:06.918Z,19.20
2023-04-29T00:29:34.961Z,19.20
2023-04-29T00:32:03.548Z,19.10
2023-04-29T00:34:31.446Z,19.10
2023-04-29T00:36:59.522Z,19.10
2023-04-29T00:39:27.719Z,19.10
2023-04-29T00:41:57.002Z,19.10
2023-04-29T00:44:24.950Z,19.00
2023-04-29T00:46:52.889Z,19.00
2023-04-29T00:49:20.816Z,19.00
2023-04-29T00:51:48.693Z,19.00
2023-04-29T00:54:16.660Z,19.00
2023-04-29T00:56:44.566Z,19.00
2023-04-29T00:59:15.503Z,18.90
2023-04-29T01:01:44.722Z,19.00
2023-04-29T01:04:13.499Z,19.00
2023-04-29T01:06:57.162Z,19.10
2023-04-29T01:09:36.166Z,19.20
2023-04-29T01:12:10.980Z,19.20
2023-04-29T01:14:40.445Z,19.20
2023-04-29T01:17:12.886Z,19.20
2023-04-29T01:19:45.507Z,19.20
2023-04-29T01:22:14.553Z,19.10
2023-04-29T01:24:43.996Z,19.10
2023-04-29T01:27:15.683Z,19.10
2023-04-29T01:29:51.049Z,19.00
2023-04-29T01:32:20.101Z,19.10
2023-04-29T01:34:50.785Z,19.00
2023-04-29T01:37:21.188Z,19.00
2023-04-29T01:40:06.812Z,19.00
2023-04-29T01:42:41.104Z,19.00
2023-04-29T01:45:15.219Z,19.00
2023-04-29T01:47:43.232Z,19.10
2023-04-29T01:50:12.399Z,19.20
2023-04-29T01:52:40.881Z,19.20
2023-04-29T01:55:11.476Z,19.10
2023-04-29T01:58:08.656Z,19.10
2023-04-29T02:01:01.016Z,19.10
2023-04-29T02:03:31.977Z,19.10
2023-04-29T02:06:02.468Z,19.10
2023-04-29T02:08:30.506Z,19.00
2023-04-29T02:11:00.837Z,19.00
2023-04-29T02:13:55.649Z,19.00
2023-04-29T02:16:24.363Z,19.00
2023-04-29T02:18:59.103Z,19.00
2023-04-29T02:21:27.132Z,19.00
2023-04-29T02:23:55.359Z,18.90
2023-04-29T02:26:26.741Z,19.00
2023-04-29T02:28:57.938Z,19.00
2023-04-29T02:31:25.984Z,19.00
2023-04-29T02:33:55.480Z,19.00
2023-04-29T02:36:24.576Z,18.90
2023-04-29T02:38:55.221Z,19.00
2023-04-29T02:41:23.252Z,19.00
2023-04-29T02:43:53.000Z,19.20
2023-04-29T02:46:21.033Z,19.20
2023-04-29T02:48:49.187Z,19.30
2023-04-29T02:51:17.066Z,19.20
2023-04-29T02:53:44.985Z,19.20
2023-04-29T02:56:13.047Z,19.20
2023-04-29T02:58:42.206Z,19.20
2023-04-29T03:01:11.545Z,19.20
2023-04-29T03:03:40.046Z,19.10
2023-04-29T03:06:08.372Z,19.10
2023-04-29T03:08:36.289Z,19.10
2023-04-29T03:11:04.466Z,19.10
2023-04-29T03:13:32.651Z,19.00
2023-04-29T03:16:01.194Z,19.00
2023-04-29T03:18:30.704Z,19.00
2023-04-29T03:20:58.702Z,19.00
2023-04-29T03:23:26.789Z,19.00
2023-04-29T03:25:56.774Z,19.00
2023-04-29T03:28:26.140Z,19.00
2023-04-29T03:30:54.098Z,19.00
2023-04-29T03:33:22.066Z,19.00
2023-04-29T03:35:51.713Z,19.00
2023-04-29T03:38:34.552Z,19.10
2023-04-29T03:41:02.641Z,19.20
2023-04-29T03:43:32.564Z,19.30
2023-04-29T03:46:00.815Z,19.30
2023-04-29T03:48:28.777Z,19.20
2023-04-29T03:50:58.058Z,19.20
2023-04-29T03:53:26.242Z,19.20
2023-04-29T03:55:54.656Z,19.20
2023-04-29T03:58:23.670Z,19.20
2023-04-29T04:00:52.964Z,19.10
2023-04-29T04:03:26.066Z,19.10
2023-04-29T04:05:56.170Z,19.10
2023-04-29T04:08:25.683Z,19.10
2023-04-29T04:11:02.866Z,19.00
2023-04-29T04:13:37.927Z,19.00
2023-04-29T04:16:06.782Z,19.00
2023-04-29T04:18:34.868Z,19.00
2023-04-29T04:21:07.129Z,19.00
2023-04-29T04:23:40.202Z,19.00
2023-04-29T04:26:09.252Z,19.10
2023-04-29T04:28:55.636Z,19.00
2023-04-29T04:31:49.490Z,19.00
2023-04-29T04:34:19.355Z,19.10
2023-04-29T04:36:49.878Z,19.20
2023-04-29T04:39:19.361Z,19.30
2023-04-29T04:41:47.805Z,19.30
2023-04-29T04:44:16.512Z,19.30
2023-04-29T04:47:06.199Z,19.20
2023-04-29T04:49:44.042Z,19.20
2023-04-29T04:52:13.008Z,19.20
2023-04-29T04:54:42.430Z,19.20
2023-04-29T04:57:17.584Z,19.10
2023-04-29T04:59:46.093Z,19.10
2023-04-29T05:02:14.040Z,19.10
2023-04-29T05:04:41.968Z,19.10
2023-04-29T05:07:10.696Z,19.10
2023-04-29T05:09:59.328Z,19.10
2023-04-29T05:12:30.685Z,19.00
2023-04-29T05:14:59.981Z,19.00
2023-04-29T05:17:29.372Z,19.10
2023-04-29T05:19:57.349Z,19.10
2023-04-29T05:22:27.795Z,19.00
2023-04-29T05:25:02.425Z,19.00
2023-04-29T05:27:33.019Z,19.00
2023-04-29T05:30:01.432Z,19.10
2023-04-29T05:32:29.539Z,19.20
2023-04-29T05:34:57.688Z,19.30
2023-04-29T05:37:30.628Z,19.30
2023-04-29T05:40:06.056Z,19.30
2023-04-29T05:42:36.680Z,19.30
2023-04-29T05:45:04.989Z,19.20
2023-04-29T05:47:34.146Z,19.20
2023-04-29T05:50:02.656Z,19.20
2023-04-29T05:52:30.918Z,19.10
2023-04-29T05:55:00.061Z,19.10
2023-04-29T05:57:28.177Z,19.10
2023-04-29T06:00:00.299Z,19.10
2023-04-29T06:02:28.669Z,19.10
2023-04-29T06:04:56.991Z,19.00
2023-04-29T06:07:42.442Z,19.00
2023-04-29T06:10:33.153Z,19.00
2023-04-29T06:13:01.242Z,19.00
2023-04-29T06:15:30.487Z,19.00
2023-04-29T06:17:58.530Z,19.00
2023-04-29T06:20:27.013Z,19.00
2023-04-29T06:22:54.947Z,19.00
2023-04-29T06:25:22.928Z,19.10
2023-04-29T06:27:52.565Z,19.20
2023-04-29T06:30:23.987Z,19.30
2023-04-29T06:32:53.582Z,19.30
2023-04-29T06:35:21.933Z,19.30
2023-04-29T06:38:15.577Z,19.20
2023-04-29T06:41:01.890Z,19.20
2023-04-29T06:43:29.840Z,19.20
2023-04-29T06:46:16.374Z,19.20
2023-04-29T06:49:00.532Z,19.10
2023-04-29T06:51:29.300Z,19.10
2023-04-29T06:53:59.214Z,19.10
2023-04-29T06:56:27.258Z,19.10
2023-04-29T06:58:55.256Z,19.00
2023-04-29T07:01:23.216Z,19.00
2023-04-29T07:03:52.397Z,19.00
2023-04-29T07:06:21.973Z,19.00
2023-04-29T07:08:50.191Z,19.00
2023-04-29T07:11:19.224Z,19.00
2023-04-29T07:13:47.262Z,19.00
2023-04-29T07:16:20.520Z,19.00
2023-04-29T07:18:48.498Z,19.00
2023-04-29T07:21:16.460Z,19.00
2023-04-29T07:23:45.931Z,19.10
2023-04-29T07:26:15.841Z,19.20
2023-04-29T07:28:45.828Z,19.20
2023-04-29T07:31:14.380Z,19.20
2023-04-29T07:33:42.475Z,19.20
2023-04-29T07:36:12.110Z,19.20
2023-04-29T07:38:40.184Z,19.20
2023-04-29T07:41:09.406Z,19.20
2023-04-29T07:43:37.365Z,19.10
2023-04-29T07:46:08.847Z,19.10
2023-04-29T07:48:39.336Z,19.10
2023-04-29T07:51:08.961Z,19.10
2023-04-29T07:53:36.989Z,19.00
2023-04-29T07:56:07.492Z,19.00
2023-04-29T07:58:36.936Z,19.00
2023-04-29T08:01:09.187Z,19.00
2023-04-29T08:03:40.463Z,19.00
2023-04-29T08:06:09.751Z,19.10
2023-04-29T08:08:37.829Z,19.20
2023-04-29T08:11:06.767Z,19.20
2023-04-29T08:13:36.131Z,19.10
2023-04-29T08:16:04.137Z,19.10
2023-04-29T08:18:32.395Z,19.10
2023-04-29T08:21:00.996Z,19.10
2023-04-29T08:23:29.026Z,19.10
2023-04-29T08:25:56.983Z,19.00
2023-04-29T08:28:24.888Z,19.00
2023-04-29T08:30:54.201Z,19.00
2023-04-29T08:33:22.227Z,19.00
2023-04-29T08:35:50.260Z,19.00
2023-04-29T08:38:18.161Z,19.00
2023-04-29T08:40:47.006Z,18.90
2023-04-29T08:43:15.164Z,19.00
2023-04-29T08:45:43.245Z,19.00
2023-04-29T08:48:12.710Z,19.00
2023-04-29T08:50:42.723Z,19.00
2023-04-29T08:53:11.108Z,18.90
2023-04-29T08:55:42.473Z,18.90
2023-04-29T08:58:11.319Z,19.00
2023-04-29T09:00:39.400Z,19.10
2023-04-29T09:03:15.359Z,19.20
2023-04-29T09:05:43.401Z,19.20
2023-04-29T09:08:12.428Z,19.20
2023-04-29T09:10:40.540Z,19.20
2023-04-29T09:13:08.460Z,19.20
2023-04-29T09:15:38.050Z,19.20
2023-04-29T09:18:08.987Z,19.10
2023-04-29T09:20:38.386Z,19.10
2023-04-29T09:23:06.355Z,19.00
2023-04-29T09:25:36.416Z,19.00
2023-04-29T09:28:16.045Z,19.00
2023-04-29T09:30:47.173Z,19.00
2023-04-29T09:33:17.436Z,19.00
2023-04-29T09:35:48.701Z,19.00
2023-04-29T09:38:17.073Z,18.90
2023-04-29T09:40:57.460Z,19.00
2023-04-29T09:43:27.217Z,19.10
2023-04-29T09:45:55.434Z,19.20
2023-04-29T09:48:26.411Z,19.20
2023-04-29T09:51:02.905Z,19.10
2023-04-29T09:53:31.685Z,19.10
2023-04-29T09:56:00.851Z,19.10
2023-04-29T09:58:30.103Z,19.10
2023-04-29T10:01:00.159Z,19.10
2023-04-29T10:03:33.487Z,19.00
2023-04-29T10:06:03.827Z,19.00
2023-04-29T10:08:31.923Z,19.00
2023-04-29T10:11:01.109Z,19.00
2023-04-29T10:13:29.451Z,19.00
2023-04-29T10:16:02.069Z,19.00
2023-04-29T10:18:38.047Z,19.00
2023-04-29T10:21:08.756Z,19.00
2023-04-29T10:23:37.126Z,19.00
2023-04-29T10:26:05.288Z,19.00
2023-04-29T10:28:33.562Z,19.00
2023-04-29T10:31:03.038Z,18.90
2023-04-29T10:33:33.331Z,18.90
2023-04-29T10:36:02.100Z,19.00
2023-04-29T10:38:41.618Z,19.10
2023-04-29T10:41:11.972Z,19.20
2023-04-29T10:43:39.954Z,19.20
2023-04-29T10:46:23.767Z,19.20
2023-04-29T10:48:57.747Z,19.20
2023-04-29T10:51:33.117Z,19.20
2023-04-29T10:54:08.576Z,19.20
2023-04-29T10:56:37.826Z,19.20
2023-04-29T10:59:05.777Z,19.10
2023-04-29T11:01:44.296Z,19.00
2023-04-29T11:04:12.614Z,19.10
2023-04-29T11:06:42.124Z,19.00
2023-04-29T11:09:14.204Z,19.00
2023-04-29T11:11:43.915Z,19.00
2023-04-29T11:14:12.207Z,19.00
2023-04-29T11:16:41.307Z,18.90
2023-04-29T11:19:09.948Z,19.00
2023-04-29T11:21:39.546Z,19.00
2023-04-29T11:24:07.786Z,19.00
2023-04-29T11:26:37.240Z,18.90
2023-04-29T11:29:11.360Z,18.90
2023-04-29T11:31:39.964Z,19.00
2023-04-29T11:34:08.316Z,19.10
2023-04-29T11:36:36.910Z,19.20
2023-04-29T11:39:06.978Z,19.20
2023-04-29T11:41:35.716Z,19.20
2023-04-29T11:44:07.504Z,19.20
2023-04-29T11:46:35.521Z,19.20
2023-04-29T11:49:06.059Z,19.20
2023-04-29T11:51:33.928Z,19.10
2023-04-29T11:54:01.863Z,19.10
2023-04-29T11:56:29.794Z,19.00
2023-04-29T11:58:57.725Z,19.00
2023-04-29T12:01:27.997Z,19.00
2023-04-29T12:03:59.853Z,19.00
2023-04-29T12:06:29.923Z,19.00
2023-04-29T12:09:00.182Z,19.00
2023-04-29T12:11:28.185Z,18.90
2023-04-29T12:13:57.874Z,19.00
2023-04-29T12:16:29.352Z,19.00
2023-04-29T12:18:57.582Z,19.00
2023-04-29T12:21:28.468Z,18.90
2023-04-29T12:23:59.989Z,18.90
2023-04-29T12:26:29.617Z,18.90
2023-04-29T12:28:58.345Z,19.00
2023-04-29T12:31:34.604Z,19.10
2023-04-29T12:34:09.133Z,19.20
2023-04-29T12:36:43.125Z,19.20
2023-04-29T12:39:11.930Z,19.20
2023-04-29T12:41:40.813Z,19.20
2023-04-29T12:44:10.608Z,19.20
2023-04-29T12:46:40.599Z,19.10
2023-04-29T12:49:08.841Z,19.10
2023-04-29T12:51:36.856Z,19.00
2023-04-29T12:54:06.655Z,19.00
2023-04-29T12:56:34.765Z,19.00
2023-04-29T12:59:08.908Z,19.00
2023-04-29T13:01:36.907Z,19.00
2023-04-29T13:04:08.929Z,18.90
2023-04-29T13:06:39.488Z,18.90
2023-04-29T13:09:17.955Z,18.90
2023-04-29T13:11:47.096Z,18.90
2023-04-29T13:14:15.701Z,18.90
2023-04-29T13:16:43.732Z,18.90
2023-04-29T13:21:46.717Z,18.90
2023-04-29T13:24:14.698Z,19.00
2023-04-29T13:26:42.629Z,19.10
2023-04-29T13:29:10.681Z,19.20
2023-04-29T13:31:38.854Z,19.20
2023-04-29T13:34:09.650Z,19.10
2023-04-29T13:36:39.122Z,19.10
2023-04-29T13:39:07.391Z,19.10
2023-04-29T13:41:37.350Z,19.10
2023-04-29T13:44:11.852Z,19.00
2023-04-29T13:46:52.409Z,19.00
2023-04-29T13:49:53.732Z,19.00
2023-04-29T13:53:01.750Z,19.00
2023-04-29T13:55:43.998Z,19.00
2023-04-29T14:00:45.417Z,18.90
2023-04-29T14:03:08.650Z,18.90
2023-04-29T14:05:36.999Z,19.00
2023-04-29T14:08:06.517Z,19.10
2023-04-29T14:10:41.468Z,19.10
2023-04-29T14:13:09.396Z,19.10
2023-04-29T14:15:37.414Z,19.10
2023-04-29T14:18:08.049Z,19.10
2023-04-29T14:20:36.372Z,19.10
2023-04-29T14:23:05.557Z,19.00
2023-04-29T14:25:37.484Z,19.00
2023-04-29T14:28:07.565Z,19.00
2023-04-29T14:30:35.496Z,19.00
2023-04-29T14:33:03.979Z,19.00
2023-04-29T14:35:32.259Z,19.00
2023-04-29T14:38:00.158Z,19.00
2023-04-29T14:40:30.184Z,19.00
2023-04-29T14:42:59.453Z,19.00
2023-04-29T14:45:28.161Z,19.10
2023-04-29T14:47:56.119Z,19.20
2023-04-29T14:50:25.137Z,19.30
2023-04-29T14:52:53.052Z,19.30
2023-04-29T14:55:23.512Z,19.30
2023-04-29T14:57:51.397Z,19.30
2023-04-29T15:00:21.358Z,19.30
2023-04-29T15:02:50.503Z,19.30
2023-04-29T15:05:18.951Z,19.30
2023-04-29T15:07:47.549Z,19.30
2023-04-29T15:10:15.515Z,19.30
2023-04-29T15:12:43.702Z,19.40
2023-04-29T15:15:11.841Z,19.50
2023-04-29T15:17:41.246Z,19.50
2023-04-29T15:20:10.215Z,19.50
2023-04-29T15:22:41.417Z,19.50
2023-04-29T15:25:10.633Z,19.50
2023-04-29T15:27:38.647Z,19.50
2023-04-29T15:30:07.674Z,19.50
2023-04-29T15:32:35.762Z,19.50
2023-04-29T15:35:06.689Z,19.50
2023-04-29T15:37:37.673Z,19.50
2023-04-29T15:40:07.054Z,19.50
2023-04-29T15:42:35.011Z,19.50
2023-04-29T15:45:04.159Z,19.50
2023-04-29T15:47:32.376Z,19.50
2023-04-29T15:50:00.421Z,19.50
2023-04-29T15:52:29.705Z,19.50
2023-04-29T15:54:58.136Z,19.60
2023-04-29T15:57:28.285Z,19.70
2023-04-29T15:59:56.441Z,19.90
2023-04-29T16:02:27.439Z,19.90
2023-04-29T16:04:55.475Z,20.00
2023-04-29T16:07:23.359Z,19.90
2023-04-29T16:09:52.829Z,19.90
2023-04-29T16:12:21.206Z,19.80
2023-04-29T16:14:49.152Z,19.80
2023-04-29T16:17:17.085Z,19.80
2023-04-29T16:19:45.577Z,19.80
2023-04-29T16:22:13.593Z,19.80
2023-04-29T16:24:41.832Z,19.70
2023-04-29T16:27:11.537Z,19.70
2023-04-29T16:29:39.889Z,19.70
2023-04-29T16:32:07.807Z,19.80
2023-04-29T16:34:35.731Z,19.70
2023-04-29T16:37:03.643Z,19.70
2023-04-29T16:39:31.610Z,19.70
2023-04-29T16:42:00.586Z,19.70
2023-04-29T16:44:29.820Z,19.80
2023-04-29T16:46:57.776Z,19.80
2023-04-29T16:49:26.534Z,19.90
2023-04-29T16:51:57.132Z,20.00
2023-04-29T16:54:25.188Z,20.00
2023-04-29T16:56:53.088Z,19.90
2023-04-29T16:59:22.623Z,20.00
2023-04-29T17:01:51.940Z,20.00
2023-04-29T17:04:19.943Z,20.00
2023-04-29T17:06:49.570Z,19.90
2023-04-29T17:09:21.071Z,19.90
2023-04-29T17:11:50.107Z,19.90
2023-04-29T17:14:17.989Z,20.00
2023-04-29T17:16:45.960Z,20.00
2023-04-29T17:19:15.186Z,20.00
2023-04-29T17:21:46.570Z,20.00
2023-04-29T17:24:14.475Z,20.00
2023-04-29T17:26:43.557Z,20.00
2023-04-29T17:29:12.498Z,20.00
2023-04-29T17:31:45.876Z,20.00
2023-04-29T17:34:19.686Z,20.00
2023-04-29T17:36:47.797Z,20.00
2023-04-29T17:39:18.828Z,20.00
2023-04-29T17:41:46.825Z,20.00
2023-04-29T17:44:16.674Z,20.00
2023-04-29T17:46:44.611Z,20.00
2023-04-29T17:49:12.498Z,19.90
2023-04-29T17:51:41.808Z,20.00
2023-04-29T17:54:10.374Z,20.00
2023-04-29T17:56:38.279Z,20.10
2023-04-29T17:59:06.319Z,20.20
2023-04-29T18:01:34.401Z,20.30
2023-04-29T18:04:02.540Z,20.20
2023-04-29T18:06:31.735Z,20.20
2023-04-29T18:09:01.163Z,20.20
2023-04-29T18:11:29.151Z,20.10
2023-04-29T18:13:57.057Z,20.10
2023-04-29T18:16:25.092Z,20.10
2023-04-29T18:18:55.250Z,20.10
2023-04-29T18:21:24.735Z,20.00
2023-04-29T18:23:55.857Z,20.00
2023-04-29T18:26:26.512Z,20.00
2023-04-29T18:28:56.468Z,20.00
2023-04-29T18:31:27.223Z,20.00
2023-04-29T18:33:55.129Z,20.00
2023-04-29T18:36:26.257Z,20.00
2023-04-29T18:38:54.135Z,20.00
2023-04-29T18:41:22.349Z,20.00
2023-04-29T18:43:51.643Z,20.00
2023-04-29T18:46:19.597Z,20.00
2023-04-29T18:48:47.586Z,20.00
2023-04-29T18:51:15.568Z,20.00
2023-04-29T18:53:43.489Z,20.00
2023-04-29T18:56:11.607Z,20.10
2023-04-29T18:58:39.549Z,20.20
2023-04-29T19:01:08.948Z,20.30
2023-04-29T19:03:37.115Z,20.30
2023-04-29T19:06:05.213Z,20.30
2023-04-29T19:08:33.207Z,20.30
2023-04-29T19:11:01.436Z,20.20
2023-04-29T19:13:29.407Z,20.20
2023-04-29T19:15:57.391Z,20.20
2023-04-29T19:18:26.875Z,20.10
2023-04-29T19:20:56.025Z,20.10
2023-04-29T19:23:24.023Z,20.10
2023-04-29T19:25:51.974Z,20.10
2023-04-29T19:28:19.868Z,20.00
2023-04-29T19:30:47.841Z,20.00
2023-04-29T19:33:15.845Z,20.10
2023-04-29T19:35:45.165Z,20.00
2023-04-29T19:38:13.082Z,20.00
2023-04-29T19:40:40.975Z,20.00
2023-04-29T19:43:09.242Z,20.10
2023-04-29T19:45:37.214Z,20.20
2023-04-29T19:48:05.445Z,20.20
2023-04-29T19:50:33.483Z,20.30
2023-04-29T19:53:02.740Z,20.30
2023-04-29T19:55:30.674Z,20.30
2023-04-29T19:57:58.571Z,20.30
2023-04-29T20:00:27.030Z,20.20
2023-04-29T20:02:58.053Z,20.20
2023-04-29T20:05:26.254Z,20.20
2023-04-29T20:07:54.309Z,20.20
2023-04-29T20:10:23.661Z,20.10
2023-04-29T20:12:51.624Z,20.10
2023-04-29T20:15:19.638Z,20.10
2023-04-29T20:17:47.673Z,20.10
2023-04-29T20:20:15.623Z,20.10
2023-04-29T20:22:43.544Z,20.10
2023-04-29T20:25:11.452Z,20.10
2023-04-29T20:27:41.150Z,20.10
2023-04-29T20:30:12.711Z,20.10
2023-04-29T20:32:40.863Z,20.10
2023-04-29T20:35:09.260Z,20.10
2023-04-29T20:37:37.234Z,20.10
2023-04-29T20:40:06.813Z,20.10
2023-04-29T20:42:34.762Z,20.10
2023-04-29T20:45:04.258Z,20.20
2023-04-29T20:47:32.703Z,20.30
2023-04-29T20:50:00.664Z,20.40
2023-04-29T20:52:28.889Z,20.40
2023-04-29T20:54:59.669Z,20.40
2023-04-29T20:57:27.819Z,20.40
2023-04-29T20:59:55.861Z,20.30
2023-04-29T21:02:25.522Z,20.30
2023-04-29T21:04:53.605Z,20.20
2023-04-29T21:07:21.580Z,20.20
2023-04-29T21:09:50.218Z,20.20
2023-04-29T21:12:18.123Z,20.20
2023-04-29T21:14:46.011Z,20.20
2023-04-29T21:17:13.943Z,20.20
2023-04-29T21:19:43.254Z,20.20
2023-04-29T21:22:13.939Z,20.20
2023-04-29T21:24:41.896Z,20.20
2023-04-29T21:27:09.888Z,20.20
2023-04-29T21:29:40.769Z,20.10
2023-04-29T21:32:08.887Z,20.20
2023-04-29T21:34:36.913Z,20.30
2023-04-29T21:37:06.179Z,20.40
2023-04-29T21:39:34.049Z,20.50
2023-04-29T21:42:03.147Z,20.40
2023-04-29T21:44:31.132Z,20.40
2023-04-29T21:47:00.751Z,20.40
2023-04-29T21:49:28.809Z,20.30
2023-04-29T21:51:56.749Z,20.30
2023-04-29T21:54:26.152Z,20.30
2023-04-29T21:56:54.052Z,20.20
2023-04-29T21:59:22.116Z,20.20
2023-04-29T22:01:59.691Z,20.20
2023-04-29T22:04:28.073Z,20.20
2023-04-29T22:06:56.161Z,20.20
2023-04-29T22:09:25.936Z,20.20
2023-04-29T22:11:53.798Z,20.20
2023-04-29T22:14:21.749Z,20.20
2023-04-29T22:16:49.730Z,20.20
2023-04-29T22:19:17.724Z,20.20
2023-04-29T22:21:45.682Z,20.20
2023-04-29T22:24:15.979Z,20.30
2023-04-29T22:26:45.246Z,20.40
2023-04-29T22:29:13.231Z,20.50
2023-04-29T22:31:41.154Z,20.50
2023-04-29T22:34:09.160Z,20.40
2023-04-29T22:36:37.694Z,20.40
2023-04-29T22:39:05.615Z,20.30
2023-04-29T22:41:33.551Z,20.30
2023-04-29T22:44:05.996Z,20.30
2023-04-29T22:46:34.032Z,20.30
2023-04-29T22:49:02.353Z,20.30
2023-04-29T22:51:30.265Z,20.30
2023-04-29T22:53:58.238Z,20.20
2023-04-29T22:56:28.814Z,20.20
2023-04-29T22:58:56.872Z,20.20
2023-04-29T23:01:26.196Z,20.30
2023-04-29T23:03:54.177Z,20.20
2023-04-29T23:06:22.159Z,20.20
2023-04-29T23:08:50.062Z,20.30
2023-04-29T23:11:17.963Z,20.30
2023-04-29T23:13:45.888Z,20.40
2023-04-29T23:16:13.927Z,20.40
2023-04-29T23:18:43.196Z,20.40
2023-04-29T23:21:11.095Z,20.40
2023-04-29T23:23:39.306Z,20.40
2023-04-29T23:26:07.210Z,20.40
2023-04-29T23:28:35.372Z,20.40
2023-04-29T23:31:03.305Z,20.30
2023-04-29T23:33:31.497Z,20.30
2023-04-29T23:36:00.788Z,20.30
2023-04-29T23:38:28.671Z,20.30
2023-04-29T23:40:56.574Z,20.30
2023-04-29T23:43:24.511Z,20.20
2023-04-29T23:45:52.911Z,20.20
2023-04-29T23:48:20.866Z,20.20
2023-04-29T23:50:48.781Z,20.20
2023-04-29T23:53:18.347Z,20.30
2023-04-29T23:55:46.273Z,20.40
2023-04-29T23:58:14.213Z,20.40
